Terminal Aerodrome Forecast
Issued by NWS

Home | Current Version | Previous Version | Text Only | Print | Product List | Glossary On
Versions: 1 2 3 4 5 6 7 8 9 10 11 12
059
FTUS45 KABQ 170540
TAFROW
TAF
KROW 170540Z 1706/1806 25006KT P6SM SCT200
     FM171400 02006KT P6SM BKN150
     FM172000 14005KT P6SM SCT090 BKN130
     FM180000 28005KT P6SM BKN070=

USA.gov is the U.S. government's official web portal to all federal, state and local government web resources and services.